sensor_id;sensor_type;location;lat;lon;timestamp;temperature;humidity
20481;DHT22;10399;50.754;3.366;2023-02-28T00:01:24;4.10;99.90
20481;DHT22;10399;50.754;3.366;2023-02-28T00:03:52;4.10;99.90
20481;DHT22;10399;50.754;3.366;2023-02-28T00:06:20;4.20;99.90
20481;DHT22;10399;50.754;3.366;2023-02-28T00:08:48;4.20;99.90
20481;DHT22;10399;50.754;3.366;2023-02-28T00:11:15;4.30;99.90
20481;DHT22;10399;50.754;3.366;2023-02-28T00:13:45;4.30;99.90
20481;DHT22;10399;50.754;3.366;2023-02-28T00:16:17;4.40;99.90
20481;DHT22;10399;50.754;3.366;2023-02-28T00:18:45;4.40;99.90
20481;DHT22;10399;50.754;3.366;2023-02-28T00:21:14;4.40;99.90
20481;DHT22;10399;50.754;3.366;2023-02-28T00:23:43;4.40;99.90
20481;DHT22;10399;50.754;3.366;2023-02-28T00:26:11;4.30;99.90
20481;DHT22;10399;50.754;3.366;2023-02-28T00:28:38;4.10;99.90
20481;DHT22;10399;50.754;3.366;2023-02-28T00:31:05;4.20;99.90
20481;DHT22;10399;50.754;3.366;2023-02-28T00:33:32;4.10;99.90
20481;DHT22;10399;50.754;3.366;2023-02-28T00:36:09;4.20;99.90
20481;DHT22;10399;50.754;3.366;2023-02-28T00:38:37;4.30;99.90
20481;DHT22;10399;50.754;3.366;2023-02-28T00:41:05;4.20;99.90
20481;DHT22;10399;50.754;3.366;2023-02-28T00:43:33;4.20;99.90
20481;DHT22;10399;50.754;3.366;2023-02-28T00:46:02;4.20;99.90
20481;DHT22;10399;50.754;3.366;2023-02-28T00:48:29;4.20;99.90
20481;DHT22;10399;50.754;3.366;2023-02-28T00:50:56;4.20;99.90
20481;DHT22;10399;50.754;3.366;2023-02-28T00:53:25;4.20;99.90
20481;DHT22;10399;50.754;3.366;2023-02-28T00:55:53;4.30;99.90
20481;DHT22;10399;50.754;3.366;2023-02-28T00:58:19;4.20;99.90
20481;DHT22;10399;50.754;3.366;2023-02-28T01:00:47;4.30;99.90
20481;DHT22;10399;50.754;3.366;2023-02-28T01:03:18;4.30;99.90
20481;DHT22;10399;50.754;3.366;2023-02-28T01:05:46;4.30;99.90
20481;DHT22;10399;50.754;3.366;2023-02-28T01:08:14;4.30;99.90
20481;DHT22;10399;50.754;3.366;2023-02-28T01:10:43;4.30;99.90
20481;DHT22;10399;50.754;3.366;2023-02-28T01:13:12;4.30;99.90
20481;DHT22;10399;50.754;3.366;2023-02-28T01:15:45;4.20;99.90
20481;DHT22;10399;50.754;3.366;2023-02-28T01:18:12;4.10;99.90
20481;DHT22;10399;50.754;3.366;2023-02-28T01:20:39;4.20;99.90
20481;DHT22;10399;50.754;3.366;2023-02-28T01:23:06;4.20;99.90
20481;DHT22;10399;50.754;3.366;2023-02-28T01:25:37;4.10;99.90
20481;DHT22;10399;50.754;3.366;2023-02-28T01:28:04;4.10;99.90
20481;DHT22;10399;50.754;3.366;2023-02-28T01:30:32;4.20;99.90
20481;DHT22;10399;50.754;3.366;2023-02-28T01:32:59;4.20;99.90
20481;DHT22;10399;50.754;3.366;2023-02-28T01:35:27;4.20;99.90
20481;DHT22;10399;50.754;3.366;2023-02-28T01:37:54;4.20;99.90
20481;DHT22;10399;50.754;3.366;2023-02-28T01:40:21;4.20;99.90
20481;DHT22;10399;50.754;3.366;2023-02-28T01:42:48;4.00;99.90
20481;DHT22;10399;50.754;3.366;2023-02-28T01:45:28;4.00;99.90
20481;DHT22;10399;50.754;3.366;2023-02-28T01:48:05;3.90;99.90
20481;DHT22;10399;50.754;3.366;2023-02-28T01:50:41;3.90;99.90
20481;DHT22;10399;50.754;3.366;2023-02-28T01:53:18;3.80;99.90
20481;DHT22;10399;50.754;3.366;2023-02-28T01:55:48;3.80;99.90
20481;DHT22;10399;50.754;3.366;2023-02-28T01:58:17;3.90;99.90
20481;DHT22;10399;50.754;3.366;2023-02-28T02:00:44;3.70;99.90
20481;DHT22;10399;50.754;3.366;2023-02-28T02:03:13;3.60;99.90
20481;DHT22;10399;50.754;3.366;2023-02-28T02:05:44;3.60;99.90
20481;DHT22;10399;50.754;3.366;2023-02-28T02:08:25;3.60;99.90
20481;DHT22;10399;50.754;3.366;2023-02-28T02:10:56;3.60;99.90
20481;DHT22;10399;50.754;3.366;2023-02-28T02:22:01;3.60;99.90
20481;DHT22;10399;50.754;3.366;2023-02-28T02:24:45;3.60;99.90
20481;DHT22;10399;50.754;3.366;2023-02-28T02:29:57;3.50;99.90
20481;DHT22;10399;50.754;3.366;2023-02-28T02:32:50;3.60;99.90
20481;DHT22;10399;50.754;3.366;2023-02-28T02:35:28;3.50;99.90
20481;DHT22;10399;50.754;3.366;2023-02-28T02:40:39;3.50;99.90
20481;DHT22;10399;50.754;3.366;2023-02-28T02:43:16;3.40;99.90
20481;DHT22;10399;50.754;3.366;2023-02-28T02:45:56;3.40;99.90
20481;DHT22;10399;50.754;3.366;2023-02-28T02:48:31;3.30;99.90
20481;DHT22;10399;50.754;3.366;2023-02-28T02:51:03;3.20;99.90
20481;DHT22;10399;50.754;3.366;2023-02-28T02:53:36;3.20;99.90
20481;DHT22;10399;50.754;3.366;2023-02-28T02:56:06;3.20;99.90
20481;DHT22;10399;50.754;3.366;2023-02-28T02:58:40;3.30;99.90
20481;DHT22;10399;50.754;3.366;2023-02-28T03:01:14;3.20;99.90
20481;DHT22;10399;50.754;3.366;2023-02-28T03:03:45;3.10;99.90
20481;DHT22;10399;50.754;3.366;2023-02-28T03:06:12;3.20;99.90
20481;DHT22;10399;50.754;3.366;2023-02-28T03:08:41;3.30;99.90
20481;DHT22;10399;50.754;3.366;2023-02-28T03:11:13;3.50;99.90
20481;DHT22;10399;50.754;3.366;2023-02-28T03:17:08;3.30;99.90
20481;DHT22;10399;50.754;3.366;2023-02-28T03:22:45;3.20;99.90
20481;DHT22;10399;50.754;3.366;2023-02-28T03:30:57;3.30;99.90
20481;DHT22;10399;50.754;3.366;2023-02-28T03:36:29;3.30;99.90
20481;DHT22;10399;50.754;3.366;2023-02-28T03:39:03;3.30;99.90
20481;DHT22;10399;50.754;3.366;2023-02-28T03:42:00;3.20;99.90
20481;DHT22;10399;50.754;3.366;2023-02-28T03:44:35;3.20;99.90
20481;DHT22;10399;50.754;3.366;2023-02-28T03:47:13;3.20;99.90
20481;DHT22;10399;50.754;3.366;2023-02-28T03:49:48;3.00;99.90
20481;DHT22;10399;50.754;3.366;2023-02-28T03:52:19;3.20;99.90
20481;DHT22;10399;50.754;3.366;2023-02-28T03:54:52;3.20;99.90
20481;DHT22;10399;50.754;3.366;2023-02-28T03:57:28;3.20;99.90
20481;DHT22;10399;50.754;3.366;2023-02-28T04:00:14;3.20;99.90
20481;DHT22;10399;50.754;3.366;2023-02-28T04:02:42;3.10;99.90
20481;DHT22;10399;50.754;3.366;2023-02-28T04:05:10;3.00;99.90
20481;DHT22;10399;50.754;3.366;2023-02-28T04:07:37;2.90;99.90
20481;DHT22;10399;50.754;3.366;2023-02-28T04:10:05;3.10;99.90
20481;DHT22;10399;50.754;3.366;2023-02-28T04:12:32;3.10;99.90
20481;DHT22;10399;50.754;3.366;2023-02-28T04:14:59;3.10;99.90
20481;DHT22;10399;50.754;3.366;2023-02-28T04:17:26;3.30;99.90
20481;DHT22;10399;50.754;3.366;2023-02-28T04:19:53;3.30;99.90
20481;DHT22;10399;50.754;3.366;2023-02-28T04:22:23;3.30;99.90
20481;DHT22;10399;50.754;3.366;2023-02-28T04:24:55;3.20;99.90
20481;DHT22;10399;50.754;3.366;2023-02-28T04:27:22;3.20;99.90
20481;DHT22;10399;50.754;3.366;2023-02-28T04:29:49;3.10;99.90
20481;DHT22;10399;50.754;3.366;2023-02-28T04:32:17;3.10;99.90
20481;DHT22;10399;50.754;3.366;2023-02-28T04:34:45;3.10;99.90
20481;DHT22;10399;50.754;3.366;2023-02-28T04:37:12;2.90;99.90
20481;DHT22;10399;50.754;3.366;2023-02-28T04:39:42;2.90;99.90
20481;DHT22;10399;50.754;3.366;2023-02-28T04:42:10;2.80;99.90
20481;DHT22;10399;50.754;3.366;2023-02-28T04:44:38;2.80;99.90
20481;DHT22;10399;50.754;3.366;2023-02-28T04:47:05;3.00;99.90
20481;DHT22;10399;50.754;3.366;2023-02-28T04:49:35;3.00;99.90
20481;DHT22;10399;50.754;3.366;2023-02-28T04:52:02;2.90;99.90
20481;DHT22;10399;50.754;3.366;2023-02-28T04:54:29;2.80;99.90
20481;DHT22;10399;50.754;3.366;2023-02-28T04:56:58;2.90;99.90
20481;DHT22;10399;50.754;3.366;2023-02-28T04:59:27;2.80;99.90
20481;DHT22;10399;50.754;3.366;2023-02-28T05:01:54;2.80;99.90
20481;DHT22;10399;50.754;3.366;2023-02-28T05:04:21;2.90;99.90
20481;DHT22;10399;50.754;3.366;2023-02-28T05:06:48;3.00;99.90
20481;DHT22;10399;50.754;3.366;2023-02-28T05:09:17;3.00;99.90
20481;DHT22;10399;50.754;3.366;2023-02-28T05:11:44;3.00;99.90
20481;DHT22;10399;50.754;3.366;2023-02-28T05:14:13;3.10;99.90
20481;DHT22;10399;50.754;3.366;2023-02-28T05:16:41;3.20;99.90
20481;DHT22;10399;50.754;3.366;2023-02-28T05:19:10;3.40;99.90
20481;DHT22;10399;50.754;3.366;2023-02-28T05:21:48;3.50;99.90
20481;DHT22;10399;50.754;3.366;2023-02-28T05:24:15;3.30;99.90
20481;DHT22;10399;50.754;3.366;2023-02-28T05:26:50;3.40;99.90
20481;DHT22;10399;50.754;3.366;2023-02-28T05:29:21;3.40;99.90
20481;DHT22;10399;50.754;3.366;2023-02-28T05:31:48;3.50;99.90
20481;DHT22;10399;50.754;3.366;2023-02-28T05:34:17;3.50;99.90
20481;DHT22;10399;50.754;3.366;2023-02-28T05:36:46;3.60;99.90
20481;DHT22;10399;50.754;3.366;2023-02-28T05:39:13;3.70;99.90
20481;DHT22;10399;50.754;3.366;2023-02-28T05:41:43;3.70;99.90
20481;DHT22;10399;50.754;3.366;2023-02-28T05:44:11;3.70;99.90
20481;DHT22;10399;50.754;3.366;2023-02-28T05:46:40;3.70;99.90
20481;DHT22;10399;50.754;3.366;2023-02-28T05:49:07;3.70;99.90
20481;DHT22;10399;50.754;3.366;2023-02-28T05:51:34;3.80;99.90
20481;DHT22;10399;50.754;3.366;2023-02-28T05:54:03;3.90;99.90
20481;DHT22;10399;50.754;3.366;2023-02-28T05:56:30;3.80;99.90
20481;DHT22;10399;50.754;3.366;2023-02-28T05:58:57;3.90;99.90
20481;DHT22;10399;50.754;3.366;2023-02-28T06:01:36;3.80;99.90
20481;DHT22;10399;50.754;3.366;2023-02-28T06:04:05;3.80;99.90
20481;DHT22;10399;50.754;3.366;2023-02-28T06:06:33;3.80;99.90
20481;DHT22;10399;50.754;3.366;2023-02-28T06:09:05;3.90;99.90
20481;DHT22;10399;50.754;3.366;2023-02-28T06:11:35;3.90;99.90
20481;DHT22;10399;50.754;3.366;2023-02-28T06:14:04;3.80;99.90
20481;DHT22;10399;50.754;3.366;2023-02-28T06:16:33;3.80;99.90
20481;DHT22;10399;50.754;3.366;2023-02-28T06:19:03;3.90;99.90
20481;DHT22;10399;50.754;3.366;2023-02-28T06:21:31;3.80;99.90
20481;DHT22;10399;50.754;3.366;2023-02-28T06:23:58;3.90;99.90
20481;DHT22;10399;50.754;3.366;2023-02-28T06:26:26;3.90;99.90
20481;DHT22;10399;50.754;3.366;2023-02-28T06:28:54;3.80;99.90
20481;DHT22;10399;50.754;3.366;2023-02-28T06:31:21;4.00;99.90
20481;DHT22;10399;50.754;3.366;2023-02-28T06:33:49;3.90;99.90
20481;DHT22;10399;50.754;3.366;2023-02-28T06:36:17;3.90;99.90
20481;DHT22;10399;50.754;3.366;2023-02-28T06:38:44;3.90;99.90
20481;DHT22;10399;50.754;3.366;2023-02-28T06:41:11;3.80;99.90
20481;DHT22;10399;50.754;3.366;2023-02-28T06:43:41;3.60;99.90
20481;DHT22;10399;50.754;3.366;2023-02-28T06:46:11;3.80;99.90
20481;DHT22;10399;50.754;3.366;2023-02-28T06:48:42;4.00;99.90
20481;DHT22;10399;50.754;3.366;2023-02-28T06:51:15;4.10;99.90
20481;DHT22;10399;50.754;3.366;2023-02-28T06:53:45;4.20;99.90
20481;DHT22;10399;50.754;3.366;2023-02-28T06:56:13;4.20;99.90
20481;DHT22;10399;50.754;3.366;2023-02-28T06:58:41;4.20;99.90
20481;DHT22;10399;50.754;3.366;2023-02-28T07:01:10;4.10;99.90
20481;DHT22;10399;50.754;3.366;2023-02-28T07:03:37;4.20;99.90
20481;DHT22;10399;50.754;3.366;2023-02-28T07:06:05;4.20;99.90
20481;DHT22;10399;50.754;3.366;2023-02-28T07:08:35;4.20;99.90
20481;DHT22;10399;50.754;3.366;2023-02-28T07:11:12;4.20;99.90
20481;DHT22;10399;50.754;3.366;2023-02-28T07:13:39;4.30;99.90
20481;DHT22;10399;50.754;3.366;2023-02-28T07:16:11;4.10;99.90
20481;DHT22;10399;50.754;3.366;2023-02-28T07:18:38;4.20;99.90
20481;DHT22;10399;50.754;3.366;2023-02-28T07:21:10;4.20;99.90
20481;DHT22;10399;50.754;3.366;2023-02-28T07:23:37;4.30;99.90
20481;DHT22;10399;50.754;3.366;2023-02-28T07:26:14;4.30;99.90
20481;DHT22;10399;50.754;3.366;2023-02-28T07:28:46;4.30;99.90
20481;DHT22;10399;50.754;3.366;2023-02-28T07:31:14;4.40;99.90
20481;DHT22;10399;50.754;3.366;2023-02-28T07:33:42;4.50;99.90
20481;DHT22;10399;50.754;3.366;2023-02-28T07:36:13;4.60;99.90
20481;DHT22;10399;50.754;3.366;2023-02-28T07:38:47;4.60;99.90
20481;DHT22;10399;50.754;3.366;2023-02-28T07:41:19;4.60;99.90
20481;DHT22;10399;50.754;3.366;2023-02-28T07:43:46;4.60;99.90
20481;DHT22;10399;50.754;3.366;2023-02-28T07:46:16;4.70;99.90
20481;DHT22;10399;50.754;3.366;2023-02-28T07:48:45;4.80;99.90
20481;DHT22;10399;50.754;3.366;2023-02-28T07:51:12;4.80;99.90
20481;DHT22;10399;50.754;3.366;2023-02-28T07:53:39;4.80;99.90
20481;DHT22;10399;50.754;3.366;2023-02-28T07:56:07;4.90;99.90
20481;DHT22;10399;50.754;3.366;2023-02-28T07:58:33;4.80;99.90
20481;DHT22;10399;50.754;3.366;2023-02-28T08:01:09;4.90;99.90
20481;DHT22;10399;50.754;3.366;2023-02-28T08:03:37;4.90;99.90
20481;DHT22;10399;50.754;3.366;2023-02-28T08:06:07;4.90;99.90
20481;DHT22;10399;50.754;3.366;2023-02-28T08:08:34;4.80;99.90
20481;DHT22;10399;50.754;3.366;2023-02-28T08:11:03;4.80;99.90
20481;DHT22;10399;50.754;3.366;2023-02-28T08:13:30;4.90;99.90
20481;DHT22;10399;50.754;3.366;2023-02-28T08:16:00;4.80;99.90
20481;DHT22;10399;50.754;3.366;2023-02-28T08:18:28;5.00;99.90
20481;DHT22;10399;50.754;3.366;2023-02-28T08:20:55;4.90;99.90
20481;DHT22;10399;50.754;3.366;2023-02-28T08:23:23;5.00;99.90
20481;DHT22;10399;50.754;3.366;2023-02-28T08:25:57;5.10;99.90
20481;DHT22;10399;50.754;3.366;2023-02-28T08:28:24;5.10;99.90
20481;DHT22;10399;50.754;3.366;2023-02-28T08:30:53;5.30;99.90
20481;DHT22;10399;50.754;3.366;2023-02-28T08:33:21;5.30;99.90
20481;DHT22;10399;50.754;3.366;2023-02-28T08:35:55;5.30;99.90
20481;DHT22;10399;50.754;3.366;2023-02-28T08:38:24;5.30;99.90
20481;DHT22;10399;50.754;3.366;2023-02-28T08:41:04;5.50;99.90
20481;DHT22;10399;50.754;3.366;2023-02-28T08:43:36;5.50;99.90
20481;DHT22;10399;50.754;3.366;2023-02-28T08:46:03;5.50;99.90
20481;DHT22;10399;50.754;3.366;2023-02-28T08:48:32;5.70;99.90
20481;DHT22;10399;50.754;3.366;2023-02-28T08:51:07;5.90;99.90
20481;DHT22;10399;50.754;3.366;2023-02-28T08:53:38;6.10;99.90
20481;DHT22;10399;50.754;3.366;2023-02-28T08:56:13;6.10;99.90
20481;DHT22;10399;50.754;3.366;2023-02-28T08:58:40;6.20;99.90
20481;DHT22;10399;50.754;3.366;2023-02-28T09:01:19;6.30;99.90
20481;DHT22;10399;50.754;3.366;2023-02-28T09:03:48;6.30;99.90
20481;DHT22;10399;50.754;3.366;2023-02-28T09:06:19;6.10;99.90
20481;DHT22;10399;50.754;3.366;2023-02-28T09:08:47;6.00;99.90
20481;DHT22;10399;50.754;3.366;2023-02-28T09:11:18;5.90;99.90
20481;DHT22;10399;50.754;3.366;2023-02-28T09:13:46;5.90;99.90
20481;DHT22;10399;50.754;3.366;2023-02-28T09:16:14;5.90;99.90
20481;DHT22;10399;50.754;3.366;2023-02-28T09:18:44;6.10;99.90
20481;DHT22;10399;50.754;3.366;2023-02-28T09:21:16;6.10;99.90
20481;DHT22;10399;50.754;3.366;2023-02-28T09:23:45;6.00;99.90
20481;DHT22;10399;50.754;3.366;2023-02-28T09:26:24;5.90;99.90
20481;DHT22;10399;50.754;3.366;2023-02-28T09:28:54;6.10;99.90
20481;DHT22;10399;50.754;3.366;2023-02-28T09:31:25;6.20;99.90
20481;DHT22;10399;50.754;3.366;2023-02-28T09:33:54;6.40;99.90
20481;DHT22;10399;50.754;3.366;2023-02-28T09:36:24;6.50;99.90
20481;DHT22;10399;50.754;3.366;2023-02-28T09:39:07;6.50;99.90
20481;DHT22;10399;50.754;3.366;2023-02-28T09:41:44;6.60;99.90
20481;DHT22;10399;50.754;3.366;2023-02-28T09:44:38;6.60;99.90
20481;DHT22;10399;50.754;3.366;2023-02-28T09:47:25;6.60;99.90
20481;DHT22;10399;50.754;3.366;2023-02-28T09:49:55;6.60;99.90
20481;DHT22;10399;50.754;3.366;2023-02-28T09:52:29;6.60;99.90
20481;DHT22;10399;50.754;3.366;2023-02-28T09:57:48;6.60;99.90
20481;DHT22;10399;50.754;3.366;2023-02-28T10:00:19;6.70;99.90
20481;DHT22;10399;50.754;3.366;2023-02-28T10:03:28;6.70;99.90
20481;DHT22;10399;50.754;3.366;2023-02-28T10:09:00;6.60;99.90
20481;DHT22;10399;50.754;3.366;2023-02-28T10:11:29;6.50;99.90
20481;DHT22;10399;50.754;3.366;2023-02-28T10:14:18;6.60;99.90
20481;DHT22;10399;50.754;3.366;2023-02-28T10:17:22;6.80;99.90
20481;DHT22;10399;50.754;3.366;2023-02-28T10:20:04;6.90;99.90
20481;DHT22;10399;50.754;3.366;2023-02-28T10:22:52;6.90;99.90
20481;DHT22;10399;50.754;3.366;2023-02-28T10:25:26;6.90;99.90
20481;DHT22;10399;50.754;3.366;2023-02-28T10:27:58;6.80;99.90
20481;DHT22;10399;50.754;3.366;2023-02-28T10:30:29;7.10;99.90
20481;DHT22;10399;50.754;3.366;2023-02-28T10:32:56;7.20;99.90
20481;DHT22;10399;50.754;3.366;2023-02-28T10:35:25;7.20;99.90
20481;DHT22;10399;50.754;3.366;2023-02-28T10:37:58;7.50;99.90
20481;DHT22;10399;50.754;3.366;2023-02-28T10:40:35;7.70;99.90
20481;DHT22;10399;50.754;3.366;2023-02-28T10:43:05;7.60;99.90
20481;DHT22;10399;50.754;3.366;2023-02-28T10:51:15;7.60;99.90
20481;DHT22;10399;50.754;3.366;2023-02-28T10:53:53;7.60;99.90
20481;DHT22;10399;50.754;3.366;2023-02-28T10:56:29;7.80;99.90
20481;DHT22;10399;50.754;3.366;2023-02-28T10:59:27;7.90;99.90
20481;DHT22;10399;50.754;3.366;2023-02-28T11:01:57;7.90;99.90
20481;DHT22;10399;50.754;3.366;2023-02-28T11:07:21;8.20;99.90
20481;DHT22;10399;50.754;3.366;2023-02-28T11:09:56;8.20;99.90
20481;DHT22;10399;50.754;3.366;2023-02-28T11:12:37;8.10;99.90
20481;DHT22;10399;50.754;3.366;2023-02-28T11:15:28;8.30;99.90
20481;DHT22;10399;50.754;3.366;2023-02-28T11:17:59;8.50;99.90
20481;DHT22;10399;50.754;3.366;2023-02-28T11:20:30;9.00;99.90
20481;DHT22;10399;50.754;3.366;2023-02-28T11:23:01;9.50;99.90
20481;DHT22;10399;50.754;3.366;2023-02-28T11:25:34;10.10;99.90
20481;DHT22;10399;50.754;3.366;2023-02-28T11:28:05;10.70;99.90
20481;DHT22;10399;50.754;3.366;2023-02-28T11:30:40;10.80;99.90
20481;DHT22;10399;50.754;3.366;2023-02-28T11:33:42;11.20;99.90
20481;DHT22;10399;50.754;3.366;2023-02-28T11:36:20;11.20;99.90
20481;DHT22;10399;50.754;3.366;2023-02-28T11:38:59;11.40;99.90
20481;DHT22;10399;50.754;3.366;2023-02-28T11:44:43;12.20;99.90
20481;DHT22;10399;50.754;3.366;2023-02-28T11:50:16;12.30;99.90
20481;DHT22;10399;50.754;3.366;2023-02-28T11:58:13;12.90;99.90
20481;DHT22;10399;50.754;3.366;2023-02-28T12:21:18;13.60;95.60
20481;DHT22;10399;50.754;3.366;2023-02-28T12:26:24;13.30;94.90
20481;DHT22;10399;50.754;3.366;2023-02-28T12:29:04;13.20;94.60
20481;DHT22;10399;50.754;3.366;2023-02-28T12:31:45;13.40;94.70
20481;DHT22;10399;50.754;3.366;2023-02-28T12:34:20;13.20;93.10
20481;DHT22;10399;50.754;3.366;2023-02-28T12:36:52;13.40;94.00
20481;DHT22;10399;50.754;3.366;2023-02-28T12:39:31;13.30;92.40
20481;DHT22;10399;50.754;3.366;2023-02-28T12:42:23;13.30;93.60
20481;DHT22;10399;50.754;3.366;2023-02-28T12:44:59;13.70;93.70
20481;DHT22;10399;50.754;3.366;2023-02-28T12:47:27;13.80;92.30
20481;DHT22;10399;50.754;3.366;2023-02-28T12:50:00;13.50;92.10
20481;DHT22;10399;50.754;3.366;2023-02-28T12:55:47;13.30;92.00
20481;DHT22;10399;50.754;3.366;2023-02-28T13:04:38;14.40;91.20
20481;DHT22;10399;50.754;3.366;2023-02-28T13:10:04;14.30;89.30
20481;DHT22;10399;50.754;3.366;2023-02-28T13:12:35;14.70;88.10
20481;DHT22;10399;50.754;3.366;2023-02-28T13:15:08;14.90;86.00
20481;DHT22;10399;50.754;3.366;2023-02-28T13:17:48;14.80;84.60
20481;DHT22;10399;50.754;3.366;2023-02-28T13:20:21;14.60;83.60
20481;DHT22;10399;50.754;3.366;2023-02-28T13:22:52;14.40;83.30
20481;DHT22;10399;50.754;3.366;2023-02-28T13:27:54;14.40;84.60
20481;DHT22;10399;50.754;3.366;2023-02-28T13:33:36;14.60;82.60
20481;DHT22;10399;50.754;3.366;2023-02-28T13:38:46;13.90;79.40
20481;DHT22;10399;50.754;3.366;2023-02-28T13:44:11;13.50;82.90
20481;DHT22;10399;50.754;3.366;2023-02-28T13:55:14;13.60;81.10
20481;DHT22;10399;50.754;3.366;2023-02-28T14:08:58;13.30;81.70
20481;DHT22;10399;50.754;3.366;2023-02-28T14:11:32;13.20;80.70
20481;DHT22;10399;50.754;3.366;2023-02-28T14:14:01;13.40;80.30
20481;DHT22;10399;50.754;3.366;2023-02-28T14:16:44;13.50;80.80
20481;DHT22;10399;50.754;3.366;2023-02-28T14:19:24;13.70;81.00
20481;DHT22;10399;50.754;3.366;2023-02-28T14:34:05;13.50;80.40
20481;DHT22;10399;50.754;3.366;2023-02-28T14:36:41;13.30;80.70
20481;DHT22;10399;50.754;3.366;2023-02-28T14:39:17;13.50;81.90
20481;DHT22;10399;50.754;3.366;2023-02-28T14:41:48;13.50;82.40
20481;DHT22;10399;50.754;3.366;2023-02-28T14:44:23;13.60;81.20
20481;DHT22;10399;50.754;3.366;2023-02-28T14:46:53;13.30;80.50
20481;DHT22;10399;50.754;3.366;2023-02-28T14:52:20;12.70;79.70
20481;DHT22;10399;50.754;3.366;2023-02-28T14:54:58;12.60;81.90
20481;DHT22;10399;50.754;3.366;2023-02-28T14:57:34;12.60;81.80
20481;DHT22;10399;50.754;3.366;2023-02-28T15:00:15;12.60;82.50
20481;DHT22;10399;50.754;3.366;2023-02-28T15:02:42;12.60;81.60
20481;DHT22;10399;50.754;3.366;2023-02-28T15:07:40;12.70;80.80
20481;DHT22;10399;50.754;3.366;2023-02-28T15:10:27;12.80;81.90
20481;DHT22;10399;50.754;3.366;2023-02-28T15:13:01;12.50;78.80
20481;DHT22;10399;50.754;3.366;2023-02-28T15:15:57;12.10;80.50
20481;DHT22;10399;50.754;3.366;2023-02-28T15:21:20;12.50;82.90
20481;DHT22;10399;50.754;3.366;2023-02-28T15:24:18;12.50;82.70
20481;DHT22;10399;50.754;3.366;2023-02-28T15:26:54;12.70;81.90
20481;DHT22;10399;50.754;3.366;2023-02-28T15:29:26;12.50;82.30
20481;DHT22;10399;50.754;3.366;2023-02-28T15:32:05;12.40;81.50
20481;DHT22;10399;50.754;3.366;2023-02-28T15:34:38;12.10;81.40
20481;DHT22;10399;50.754;3.366;2023-02-28T15:37:29;12.00;82.90
20481;DHT22;10399;50.754;3.366;2023-02-28T15:40:17;12.20;83.30
20481;DHT22;10399;50.754;3.366;2023-02-28T15:43:15;12.00;83.40
20481;DHT22;10399;50.754;3.366;2023-02-28T15:51:29;11.40;82.90
20481;DHT22;10399;50.754;3.366;2023-02-28T15:54:05;11.00;82.00
20481;DHT22;10399;50.754;3.366;2023-02-28T15:56:55;10.90;83.60
20481;DHT22;10399;50.754;3.366;2023-02-28T15:59:26;10.50;83.60
20481;DHT22;10399;50.754;3.366;2023-02-28T16:04:56;10.60;84.50
20481;DHT22;10399;50.754;3.366;2023-02-28T16:07:24;10.40;84.50
20481;DHT22;10399;50.754;3.366;2023-02-28T16:09:52;9.90;85.20
20481;DHT22;10399;50.754;3.366;2023-02-28T16:12:20;9.80;85.20
20481;DHT22;10399;50.754;3.366;2023-02-28T16:14:56;9.60;86.80
20481;DHT22;10399;50.754;3.366;2023-02-28T16:17:29;9.60;86.60
20481;DHT22;10399;50.754;3.366;2023-02-28T16:19:58;9.50;85.50
20481;DHT22;10399;50.754;3.366;2023-02-28T16:22:26;9.20;90.00
20481;DHT22;10399;50.754;3.366;2023-02-28T16:24:52;9.10;90.00
20481;DHT22;10399;50.754;3.366;2023-02-28T16:29:47;9.00;89.40
20481;DHT22;10399;50.754;3.366;2023-02-28T16:32:16;9.00;90.20
20481;DHT22;10399;50.754;3.366;2023-02-28T16:34:45;9.00;90.70
20481;DHT22;10399;50.754;3.366;2023-02-28T16:37:15;8.60;90.10
20481;DHT22;10399;50.754;3.366;2023-02-28T16:39:43;8.20;90.90
20481;DHT22;10399;50.754;3.366;2023-02-28T16:42:22;8.30;91.20
20481;DHT22;10399;50.754;3.366;2023-02-28T16:44:50;8.40;91.40
20481;DHT22;10399;50.754;3.366;2023-02-28T16:47:17;8.40;91.50
20481;DHT22;10399;50.754;3.366;2023-02-28T16:49:44;8.30;91.40
20481;DHT22;10399;50.754;3.366;2023-02-28T16:52:11;8.20;92.10
20481;DHT22;10399;50.754;3.366;2023-02-28T16:54:39;8.00;93.30
20481;DHT22;10399;50.754;3.366;2023-02-28T16:57:19;8.00;92.50
20481;DHT22;10399;50.754;3.366;2023-02-28T16:59:48;8.00;93.50
20481;DHT22;10399;50.754;3.366;2023-02-28T17:02:18;7.90;94.60
20481;DHT22;10399;50.754;3.366;2023-02-28T17:04:46;7.80;95.40
20481;DHT22;10399;50.754;3.366;2023-02-28T17:07:15;7.80;95.30
20481;DHT22;10399;50.754;3.366;2023-02-28T17:09:44;7.90;94.90
20481;DHT22;10399;50.754;3.366;2023-02-28T17:12:12;8.10;95.00
20481;DHT22;10399;50.754;3.366;2023-02-28T17:14:39;8.00;95.80
20481;DHT22;10399;50.754;3.366;2023-02-28T17:17:07;8.00;96.10
20481;DHT22;10399;50.754;3.366;2023-02-28T17:19:34;7.90;95.10
20481;DHT22;10399;50.754;3.366;2023-02-28T17:22:04;7.70;96.20
20481;DHT22;10399;50.754;3.366;2023-02-28T17:24:31;7.70;96.90
20481;DHT22;10399;50.754;3.366;2023-02-28T17:26:58;7.70;97.80
20481;DHT22;10399;50.754;3.366;2023-02-28T17:29:25;7.60;98.10
20481;DHT22;10399;50.754;3.366;2023-02-28T17:31:52;7.40;99.00
20481;DHT22;10399;50.754;3.366;2023-02-28T17:34:20;7.40;99.10
20481;DHT22;10399;50.754;3.366;2023-02-28T17:36:49;7.40;99.50
20481;DHT22;10399;50.754;3.366;2023-02-28T17:39:17;7.20;99.90
20481;DHT22;10399;50.754;3.366;2023-02-28T17:41:54;7.20;99.90
20481;DHT22;10399;50.754;3.366;2023-02-28T17:44:22;7.20;99.90
20481;DHT22;10399;50.754;3.366;2023-02-28T17:46:51;7.10;99.90
20481;DHT22;10399;50.754;3.366;2023-02-28T17:49:23;6.90;99.90
20481;DHT22;10399;50.754;3.366;2023-02-28T17:51:50;6.90;99.90
20481;DHT22;10399;50.754;3.366;2023-02-28T17:54:17;6.80;99.90
20481;DHT22;10399;50.754;3.366;2023-02-28T17:56:47;6.80;99.90
20481;DHT22;10399;50.754;3.366;2023-02-28T17:59:14;6.70;99.90
20481;DHT22;10399;50.754;3.366;2023-02-28T18:01:41;6.60;99.90
20481;DHT22;10399;50.754;3.366;2023-02-28T18:04:08;6.70;99.90
20481;DHT22;10399;50.754;3.366;2023-02-28T18:06:38;6.60;99.90
20481;DHT22;10399;50.754;3.366;2023-02-28T18:09:21;6.50;99.90
20481;DHT22;10399;50.754;3.366;2023-02-28T18:11:51;6.40;99.90
20481;DHT22;10399;50.754;3.366;2023-02-28T18:14:20;6.40;99.90
20481;DHT22;10399;50.754;3.366;2023-02-28T18:16:47;6.40;99.90
20481;DHT22;10399;50.754;3.366;2023-02-28T18:19:15;6.30;99.90
20481;DHT22;10399;50.754;3.366;2023-02-28T18:21:48;6.30;99.90
20481;DHT22;10399;50.754;3.366;2023-02-28T18:24:16;6.20;99.90
20481;DHT22;10399;50.754;3.366;2023-02-28T18:26:45;6.20;99.90
20481;DHT22;10399;50.754;3.366;2023-02-28T18:29:21;6.20;99.90
20481;DHT22;10399;50.754;3.366;2023-02-28T18:31:50;6.20;99.90
20481;DHT22;10399;50.754;3.366;2023-02-28T18:34:18;6.10;99.90
20481;DHT22;10399;50.754;3.366;2023-02-28T18:36:50;6.00;99.90
20481;DHT22;10399;50.754;3.366;2023-02-28T18:39:20;5.90;99.90
20481;DHT22;10399;50.754;3.366;2023-02-28T18:41:48;6.00;99.90
20481;DHT22;10399;50.754;3.366;2023-02-28T18:44:15;5.90;99.90